Potter, Nebraska
Current Conditions -  °F | °C
As of 1:15 PM on Monday 24 Nov 2014 (Local Time) from KIBM Reporting Station
Overcast Overcast  
Wind Chill: -4°   Ceiling: 4700
Heat Index:   Visibility: 10mi
Dew Point: -6°   Wind: 21mph
Humidity: 56%   Direction: 320°NW
Pressure: 29.95"   Gusts: 32mph
Location:  41.22°N, 103.32°W
Report Text: KIBM 242015Z AUTO 32018G28KT 10SM SCT030 BKN047 OVC055 02/M06 A2995 RMK AO2 T00211059
Loading
Personal Weather Stations






























Interactive Weather Map New forecast layout! Learn more

10-Day Weather Forecast

Advertisements
Track Severe Weather on mobile